Time;durP1;ratioP1;P1;durP2;ratioP2;P2;SDS_P1;SDS_P2;PMS_P1;PMS_P2;Temp;Humidity;BMP_temperature;BMP_pressure;BME280_temperature;BME280_humidity;BME280_pressure;Samples;Min_cycle;Max_cycle;Signal;HPM_P1;HPM_P2
2022/01/22 00:01:04;;;;;;;3.55;1.17;;;7.40;99.90;;;;;;4920821;29;20107;-78
2022/01/22 00:03:32;;;;;;;7.95;1.23;;;7.40;99.90;;;;;;4920734;29;20482;-78
2022/01/22 00:06:00;;;;;;;1.48;0.88;;;7.30;99.90;;;;;;4921064;29;20024;-78
2022/01/22 00:08:27;;;;;;;3.53;0.75;;;7.30;99.90;;;;;;4920702;29;20032;-78
2022/01/22 00:10:54;;;;;;;3.03;0.80;;;7.30;99.90;;;;;;4920507;29;20496;-79
2022/01/22 00:15:52;;;;;;;3.33;0.77;;;7.20;99.90;;;;;;4920555;29;20052;-78
2022/01/22 00:18:19;;;;;;;4.95;0.93;;;7.20;99.90;;;;;;4920484;29;20043;-79
2022/01/22 00:20:46;;;;;;;10.80;1.25;;;7.10;99.90;;;;;;4920419;29;20031;-77
2022/01/22 00:23:16;;;;;;;2.08;0.77;;;7.10;99.90;;;;;;4920400;29;20047;-77
2022/01/22 00:25:43;;;;;;;0.88;0.60;;;7.10;99.90;;;;;;4888814;29;20060;-70
2022/01/22 00:28:14;;;;;;;2.67;1.05;;;7.00;99.90;;;;;;4922697;29;20446;-79
2022/01/22 00:30:41;;;;;;;1.08;0.70;;;7.00;99.90;;;;;;4922091;29;20036;-67
2022/01/22 00:33:08;;;;;;;3.40;1.05;;;7.10;99.90;;;;;;4918822;29;20119;-66
2022/01/22 00:35:35;;;;;;;1.50;0.80;;;7.20;99.90;;;;;;4920026;29;20494;-67
2022/01/22 00:38:02;;;;;;;1.90;1.00;;;7.20;99.90;;;;;;4919928;29;20119;-67
2022/01/22 00:40:32;;;;;;;1.52;0.93;;;7.20;99.90;;;;;;4920267;29;20496;-67
2022/01/22 00:42:59;;;;;;;2.75;0.82;;;7.20;99.90;;;;;;4919847;29;20528;-67
2022/01/22 00:45:27;;;;;;;4.38;0.77;;;7.10;99.90;;;;;;4919867;29;20064;-66
2022/01/22 00:47:54;;;;;;;3.58;0.68;;;7.10;99.90;;;;;;4918765;29;20039;-66
2022/01/22 00:50:23;;;;;;;1.25;0.70;;;7.10;99.90;;;;;;4920163;29;20095;-66
2022/01/22 00:52:50;;;;;;;0.47;0.40;;;7.10;99.90;;;;;;4919784;29;20032;-66
2022/01/22 00:55:17;;;;;;;0.65;0.50;;;7.10;99.90;;;;;;4902678;29;20039;-67
2022/01/22 00:57:44;;;;;;;6.07;0.82;;;7.00;99.90;;;;;;4919593;29;20115;-66
2022/01/22 01:00:15;;;;;;;1.42;0.50;;;7.00;99.90;;;;;;4919887;29;20032;-67
2022/01/22 01:02:43;;;;;;;1.65;0.40;;;7.00;99.90;;;;;;4919658;29;20024;-66
2022/01/22 01:05:11;;;;;;;1.48;0.45;;;6.90;99.90;;;;;;4919791;29;20036;-66
2022/01/22 01:07:39;;;;;;;0.60;0.30;;;6.90;99.90;;;;;;4919492;29;20039;-67
2022/01/22 01:10:09;;;;;;;2.50;0.40;;;6.90;99.90;;;;;;4902491;29;20059;-67
2022/01/22 01:12:38;;;;;;;1.17;0.38;;;6.80;99.90;;;;;;4919508;29;20070;-66
2022/01/22 01:34:14;;;;;;;3.80;0.30;;;6.50;99.90;;;;;;4917833;29;20043;-66
2022/01/22 01:36:43;;;;;;;0.38;0.28;;;6.40;99.90;;;;;;4917644;29;20120;-66
2022/01/22 01:39:18;;;;;;;2.97;0.60;;;6.40;99.90;;;;;;4919191;29;20044;-66
2022/01/22 01:44:37;;;;;;;2.83;0.30;;;6.30;99.90;;;;;;4918818;29;20032;-66
2022/01/22 01:47:16;;;;;;;1.52;0.15;;;6.30;99.90;;;;;;4903048;29;20111;-66
2022/01/22 01:49:43;;;;;;;2.75;0.57;;;6.20;99.90;;;;;;4918713;29;20091;-66
2022/01/22 01:52:47;;;;;;;1.77;0.43;;;6.20;99.90;;;;;;4918674;29;20032;-66
2022/01/22 01:55:21;;;;;;;1.08;0.40;;;6.10;99.90;;;;;;4918695;29;20470;-66
2022/01/22 01:57:49;;;;;;;2.50;0.20;;;6.20;99.90;;;;;;4901919;29;20122;-66
2022/01/22 02:00:23;;;;;;;1.02;0.40;;;6.10;99.90;;;;;;4918409;29;20032;-67
2022/01/22 02:02:57;;;;;;;0.57;0.35;;;6.10;99.90;;;;;;4918580;29;20067;-66
2022/01/22 02:05:27;;;;;;;0.63;0.32;;;6.10;99.90;;;;;;4918684;29;20167;-67
2022/01/22 02:07:59;;;;;;;1.55;0.50;;;6.10;99.90;;;;;;4918696;29;20031;-66
2022/01/22 02:10:55;;;;;;;1.10;0.47;;;6.10;99.90;;;;;;4917391;29;20039;-66
2022/01/22 02:25:44;;;;;;;0.63;0.20;;;6.30;99.90;;;;;;4844596;29;20034;-66
2022/01/22 02:28:13;;;;;;;1.77;0.28;;;6.30;99.90;;;;;;4884788;29;20072;-66
2022/01/22 02:30:45;;;;;;;7.40;0.60;;;6.40;99.90;;;;;;4882411;29;20049;-66
2022/01/22 02:36:12;;;;;;;6.38;0.68;;;6.40;99.90;;;;;;4899256;29;20028;-66
2022/01/22 02:41:30;;;;;;;4.43;1.35;;;6.40;99.90;;;;;;4913569;29;20076;-66
2022/01/22 02:43:57;;;;;;;0.65;0.30;;;6.40;99.90;;;;;;4899216;29;20434;-67
2022/01/22 02:46:27;;;;;;;2.03;0.43;;;6.40;99.90;;;;;;4898809;29;20088;-67
2022/01/22 02:48:56;;;;;;;1.08;0.55;;;6.40;99.90;;;;;;4898826;29;20032;-66
2022/01/22 02:51:24;;;;;;;0.20;0.10;;;6.40;99.90;;;;;;4898835;29;20038;-67
2022/01/22 02:53:54;;;;;;;3.40;0.45;;;6.30;99.90;;;;;;4897529;29;20025;-67
2022/01/22 02:56:23;;;;;;;1.00;0.20;;;6.30;99.90;;;;;;4897435;29;20047;-66
2022/01/22 02:58:52;;;;;;;0.10;0.10;;;6.30;99.90;;;;;;4913169;29;20036;-66
2022/01/22 03:01:23;;;;;;;2.10;0.20;;;6.30;99.90;;;;;;4899204;29;20497;-67
2022/01/22 03:03:53;;;;;;;0.70;0.50;;;6.30;99.90;;;;;;4898614;29;20128;-66
2022/01/22 03:06:32;;;;;;;3.38;0.63;;;6.20;99.90;;;;;;4913161;29;20036;-66
2022/01/22 03:09:02;;;;;;;1.08;0.40;;;6.20;99.90;;;;;;4898344;29;20033;-67
2022/01/22 03:11:40;;;;;;;0.85;0.80;;;6.20;99.90;;;;;;4912835;29;20110;-67
2022/01/22 03:22:15;;;;;;;1.35;0.30;;;6.20;99.90;;;;;;4868663;29;20136;-66
2022/01/22 03:27:32;;;;;;;0.40;0.20;;;6.10;99.90;;;;;;4912955;29;20504;-66
2022/01/22 03:30:07;;;;;;;1.02;0.40;;;6.10;99.90;;;;;;4898616;29;20068;-66
2022/01/22 03:32:42;;;;;;;3.85;0.40;;;6.10;99.90;;;;;;4898608;29;20037;-66
2022/01/22 03:37:41;;;;;;;7.78;0.70;;;6.10;99.90;;;;;;4898290;29;20128;-66
2022/01/22 03:40:15;;;;;;;1.48;0.93;;;6.10;99.90;;;;;;4897065;29;20112;-66
2022/01/22 03:42:42;;;;;;;1.48;0.38;;;6.00;99.90;;;;;;4898491;29;20124;-66
2022/01/22 03:45:11;;;;;;;2.67;0.28;;;5.90;99.90;;;;;;4896988;29;20036;-66
2022/01/22 03:47:40;;;;;;;0.88;0.20;;;5.90;99.90;;;;;;4898094;29;20395;-66
2022/01/22 03:50:10;;;;;;;0.75;0.15;;;5.80;99.90;;;;;;4898136;29;20426;-66
2022/01/22 03:52:43;;;;;;;3.00;0.77;;;5.80;99.90;;;;;;4896918;29;20033;-66
2022/01/22 03:55:20;;;;;;;0.63;0.22;;;5.80;99.90;;;;;;4912589;29;20168;-66
2022/01/22 03:58:06;;;;;;;1.60;0.60;;;5.70;99.90;;;;;;4898463;29;20096;-66
2022/01/22 04:00:35;;;;;;;8.90;0.77;;;5.70;99.90;;;;;;4897245;29;20033;-66
2022/01/22 04:05:59;;;;;;;3.75;0.70;;;5.70;99.90;;;;;;4898096;29;20487;-66
2022/01/22 04:08:27;;;;;;;1.40;0.43;;;5.60;99.90;;;;;;4896913;29;20111;-66
2022/01/22 04:11:01;;;;;;;3.13;1.05;;;5.50;99.90;;;;;;4896850;29;20040;-66
2022/01/22 04:13:33;;;;;;;3.40;0.50;;;5.50;99.90;;;;;;4898220;29;20439;-66
2022/01/22 04:16:00;;;;;;;4.57;0.40;;;5.50;99.90;;;;;;4898047;29;20108;-66
2022/01/22 04:27:07;;;;;;;3.28;0.57;;;5.70;99.90;;;;;;4919020;29;20032;-66
2022/01/22 04:29:33;;;;;;;5.30;0.32;;;5.80;99.90;;;;;;4903193;29;20079;-66
2022/01/22 04:32:00;;;;;;;3.58;0.65;;;5.90;99.90;;;;;;4919089;29;20024;-66
2022/01/22 04:34:27;;;;;;;4.57;0.88;;;5.80;99.90;;;;;;4918951;29;20131;-66
2022/01/22 04:36:53;;;;;;;1.40;0.47;;;5.80;99.90;;;;;;4919987;29;20028;-66
2022/01/22 04:39:22;;;;;;;1.02;0.38;;;5.80;99.90;;;;;;4904020;29;20098;-66
2022/01/22 04:41:51;;;;;;;3.40;0.43;;;5.70;99.90;;;;;;4919983;29;20028;-67
2022/01/22 04:44:19;;;;;;;2.75;0.50;;;5.70;99.90;;;;;;4919860;29;20032;-67
2022/01/22 04:55:05;;;;;;;0.80;0.50;;;5.10;99.90;;;;;;4916664;29;20559;-66
2022/01/22 04:57:40;;;;;;;5.03;0.55;;;5.10;99.90;;;;;;4919634;29;20036;-66
2022/01/22 05:00:13;;;;;;;5.22;0.45;;;5.00;99.90;;;;;;4919934;29;20036;-66
2022/01/22 05:02:59;;;;;;;3.00;0.32;;;5.10;99.90;;;;;;4919930;29;20084;-68
2022/01/22 05:05:44;;;;;;;4.22;0.40;;;5.20;99.90;;;;;;4918609;29;20044;-66
2022/01/22 05:08:29;;;;;;;0.80;0.20;;;5.30;99.90;;;;;;4920088;29;20058;-67
2022/01/22 05:11:12;;;;;;;0.82;0.60;;;5.30;99.90;;;;;;4919816;29;20036;-66
2022/01/22 05:13:44;;;;;;;3.20;0.40;;;5.30;99.90;;;;;;4919198;29;20060;-66
2022/01/22 05:16:13;;;;;;;3.53;0.70;;;5.30;99.90;;;;;;4919388;29;20040;-66
2022/01/22 05:18:51;;;;;;;0.90;0.30;;;5.30;99.90;;;;;;4919341;29;20044;-66
2022/01/22 05:21:22;;;;;;;1.25;0.30;;;5.20;99.90;;;;;;4899182;29;20395;-66
2022/01/22 05:23:50;;;;;;;1.90;0.47;;;5.30;99.90;;;;;;4899095;29;20121;-66
2022/01/22 05:32:32;;;;;;;1.25;0.50;;;5.30;99.90;;;;;;4900222;29;20044;-66
2022/01/22 05:38:08;;;;;;;5.57;0.30;;;5.10;99.90;;;;;;4914557;29;20151;-66
2022/01/22 05:40:36;;;;;;;1.63;0.50;;;5.00;99.90;;;;;;4900178;29;20445;-67
2022/01/22 05:43:05;;;;;;;2.88;0.50;;;5.10;99.90;;;;;;4914613;29;20033;-66
2022/01/22 05:45:31;;;;;;;2.65;0.73;;;5.00;99.90;;;;;;4898701;29;20399;-67
2022/01/22 05:47:58;;;;;;;5.43;0.80;;;4.90;99.90;;;;;;4899953;29;20524;-67
2022/01/22 05:50:34;;;;;;;0.90;0.22;;;4.90;99.90;;;;;;4914398;29;20032;-67
2022/01/22 05:53:17;;;;;;;3.40;0.43;;;5.00;99.90;;;;;;4899811;29;20111;-67
2022/01/22 06:01:12;;;;;;;1.70;0.57;;;5.20;99.90;;;;;;4900039;29;20028;-68
2022/01/22 06:04:05;;;;;;;1.20;0.45;;;5.30;99.90;;;;;;4898526;29;20082;-67
2022/01/22 06:06:32;;;;;;;2.38;0.70;;;5.30;99.90;;;;;;4898253;29;20463;-67
2022/01/22 06:09:08;;;;;;;2.83;0.60;;;5.30;99.90;;;;;;4899526;29;20036;-67
2022/01/22 06:11:51;;;;;;;1.25;0.52;;;5.30;99.90;;;;;;4898288;29;20032;-67
2022/01/22 06:14:19;;;;;;;0.65;0.60;;;5.30;99.90;;;;;;4914019;29;20032;-67
2022/01/22 06:16:48;;;;;;;2.67;0.90;;;5.40;99.90;;;;;;4899242;29;20032;-67
2022/01/22 06:19:26;;;;;;;1.63;0.70;;;5.40;99.90;;;;;;4899590;29;20446;-67
2022/01/22 06:21:53;;;;;;;0.73;0.40;;;5.40;99.90;;;;;;4907280;29;20417;-67
2022/01/22 06:24:22;;;;;;;0.95;0.40;;;5.40;99.90;;;;;;4918393;29;20040;-68
2022/01/22 06:26:51;;;;;;;3.03;0.68;;;5.40;99.90;;;;;;4901210;29;20039;-67
2022/01/22 06:29:21;;;;;;;1.85;0.50;;;5.40;99.90;;;;;;4901146;29;20024;-67
2022/01/22 06:31:48;;;;;;;0.35;0.35;;;5.40;99.90;;;;;;4901062;29;20032;-67
2022/01/22 06:34:26;;;;;;;0.63;0.30;;;5.30;99.90;;;;;;4901012;29;20113;-67
2022/01/22 06:36:52;;;;;;;0.63;0.30;;;5.30;99.90;;;;;;4901009;29;20386;-67
2022/01/22 06:39:21;;;;;;;4.25;0.65;;;5.30;99.90;;;;;;4918235;29;20039;-67
2022/01/22 06:42:11;;;;;;;4.75;0.60;;;5.30;99.90;;;;;;4907578;29;20036;-67
2022/01/22 06:45:13;;;;;;;1.88;0.55;;;5.30;99.90;;;;;;4896340;29;20080;-67
2022/01/22 06:47:43;;;;;;;1.30;0.32;;;5.40;99.90;;;;;;4897046;29;20112;-67
2022/01/22 06:50:29;;;;;;;1.25;0.50;;;5.50;99.90;;;;;;4896451;29;20068;-67
2022/01/22 06:53:01;;;;;;;1.73;0.25;;;5.50;99.90;;;;;;4896695;29;20063;-67
2022/01/22 06:55:55;;;;;;;0.28;0.28;;;5.60;99.90;;;;;;4897061;29;20042;-68
2022/01/22 06:58:24;;;;;;;1.42;0.60;;;5.60;99.90;;;;;;4896642;29;20427;-68
2022/01/22 07:01:05;;;;;;;2.33;0.73;;;5.60;99.90;;;;;;4896878;29;20040;-68
2022/01/22 07:03:40;;;;;;;0.32;0.32;;;5.60;99.90;;;;;;4896509;29;20101;-67
2022/01/22 07:06:31;;;;;;;3.88;0.47;;;5.60;99.90;;;;;;4896701;29;20036;-67
2022/01/22 07:09:00;;;;;;;2.28;0.47;;;5.60;99.90;;;;;;4896614;29;20181;-67
2022/01/22 07:11:29;;;;;;;2.80;0.47;;;5.70;99.90;;;;;;4896526;29;20029;-67
2022/01/22 07:13:55;;;;;;;3.30;0.95;;;5.80;99.90;;;;;;4881135;29;20053;-68
2022/01/22 07:16:23;;;;;;;2.42;0.70;;;5.80;99.90;;;;;;4896350;29;20526;-68
2022/01/22 07:19:03;;;;;;;2.05;0.90;;;5.80;99.90;;;;;;4905790;29;20032;-67
2022/01/22 07:21:32;;;;;;;4.75;0.65;;;5.80;99.90;;;;;;4917023;29;20127;-67
2022/01/22 07:26:30;;;;;;;3.35;0.47;;;5.90;99.90;;;;;;4915915;29;20031;-68
2022/01/22 07:28:59;;;;;;;0.80;0.40;;;5.90;99.90;;;;;;4900064;29;20040;-69
2022/01/22 07:31:28;;;;;;;1.95;0.55;;;5.90;99.90;;;;;;4917906;29;20087;-67
2022/01/22 07:34:00;;;;;;;0.70;0.43;;;6.00;99.90;;;;;;4917098;29;20032;-68
2022/01/22 07:36:30;;;;;;;3.22;0.73;;;6.00;99.90;;;;;;4917102;29;20051;-67
2022/01/22 07:38:57;;;;;;;1.83;0.52;;;6.00;99.90;;;;;;4917072;29;20028;-68
2022/01/22 07:41:25;;;;;;;2.35;0.75;;;6.00;99.90;;;;;;4916953;29;20087;-68
2022/01/22 07:44:28;;;;;;;2.22;0.65;;;6.00;99.90;;;;;;4900496;29;20101;-67
2022/01/22 07:46:55;;;;;;;;;;;6.00;99.90;;;;;;4917342;29;20043;-66
2022/01/22 07:49:25;;;;;;;1.55;0.45;;;6.00;99.90;;;;;;4917001;29;19922;-67
2022/01/22 07:51:57;;;;;;;3.72;0.70;;;6.10;99.90;;;;;;4917249;29;20055;-67
2022/01/22 07:54:24;;;;;;;4.72;0.77;;;6.10;99.90;;;;;;4900024;29;20371;-67
2022/01/22 07:56:54;;;;;;;5.25;0.85;;;6.10;99.90;;;;;;4918138;29;20046;-67
2022/01/22 07:59:20;;;;;;;1.52;0.98;;;6.20;99.90;;;;;;4921580;29;20420;-68
2022/01/22 08:01:51;;;;;;;4.07;1.05;;;6.20;99.90;;;;;;4920730;29;20036;-68
2022/01/22 08:04:25;;;;;;;8.65;1.08;;;6.20;99.90;;;;;;4920655;29;20119;-68
2022/01/22 08:07:10;;;;;;;1.58;0.70;;;6.30;99.90;;;;;;4920863;29;20128;-68
2022/01/22 08:09:57;;;;;;;1.73;1.02;;;6.30;99.90;;;;;;4920899;29;20047;-67
2022/01/22 08:12:48;;;;;;;4.03;1.52;;;6.30;99.90;;;;;;4920013;29;20032;-67
2022/01/22 08:15:17;;;;;;;3.58;1.38;;;6.30;99.90;;;;;;4920439;29;20115;-67
2022/01/22 08:17:46;;;;;;;4.20;1.00;;;6.40;99.90;;;;;;4920524;29;20083;-67
2022/01/22 08:20:16;;;;;;;1.80;0.70;;;6.40;99.90;;;;;;4920388;29;20047;-67
2022/01/22 08:22:54;;;;;;;1.65;0.38;;;6.40;99.90;;;;;;4920169;29;20044;-66
2022/01/22 08:25:42;;;;;;;0.43;0.30;;;6.40;99.90;;;;;;4920573;29;20398;-67
2022/01/22 08:31:15;;;;;;;7.50;1.00;;;6.40;99.90;;;;;;4920288;29;20171;-66
2022/01/22 08:36:29;;;;;;;3.00;0.63;;;6.40;99.90;;;;;;4900281;29;20094;-67
2022/01/22 08:38:57;;;;;;;2.80;0.60;;;6.40;99.90;;;;;;4920300;29;20055;-66
2022/01/22 08:41:26;;;;;;;3.75;0.90;;;6.50;99.90;;;;;;4920189;29;20528;-66
2022/01/22 08:43:54;;;;;;;7.25;1.15;;;6.50;99.90;;;;;;4902986;29;20028;-67
2022/01/22 08:46:24;;;;;;;3.70;0.75;;;6.60;99.90;;;;;;4919933;29;20028;-66
2022/01/22 08:48:54;;;;;;;1.80;0.60;;;6.70;99.90;;;;;;4919833;29;20043;-67
2022/01/22 08:51:24;;;;;;;2.63;0.80;;;6.70;99.90;;;;;;4919693;29;20032;-67
2022/01/22 08:53:55;;;;;;;3.13;0.88;;;6.70;99.90;;;;;;4919796;29;20561;-67
2022/01/22 08:56:22;;;;;;;1.25;0.60;;;6.70;99.90;;;;;;4919919;29;20028;-67
2022/01/22 08:58:49;;;;;;;1.15;0.57;;;6.70;99.90;;;;;;4919729;29;20028;-66
2022/01/22 09:01:25;;;;;;;2.80;0.82;;;6.70;99.90;;;;;;4920384;29;20036;-66
2022/01/22 09:03:56;;;;;;;2.08;0.50;;;6.80;99.90;;;;;;4919902;29;20075;-67
2022/01/22 09:06:39;;;;;;;2.10;0.80;;;6.90;99.90;;;;;;4919590;29;20099;-67
2022/01/22 09:09:32;;;;;;;3.38;0.82;;;6.90;99.90;;;;;;4917164;29;20048;-66
2022/01/22 09:12:17;;;;;;;4.35;0.90;;;6.90;99.90;;;;;;4919794;29;20051;-67
2022/01/22 09:14:53;;;;;;;1.63;0.67;;;6.90;99.90;;;;;;4919686;29;20032;-67
2022/01/22 09:17:20;;;;;;;1.38;0.85;;;6.90;99.90;;;;;;4919723;29;20762;-67
2022/01/22 09:19:48;;;;;;;2.72;0.40;;;6.80;99.90;;;;;;4919506;29;20111;-67
2022/01/22 09:22:18;;;;;;;0.95;0.70;;;6.90;99.90;;;;;;4919015;29;20052;-67
2022/01/22 09:24:50;;;;;;;4.03;0.90;;;7.00;99.90;;;;;;4918019;29;20454;-67
2022/01/22 09:27:18;;;;;;;3.67;0.90;;;7.20;99.90;;;;;;4919100;29;20032;-67
2022/01/22 09:29:46;;;;;;;7.38;0.98;;;7.20;99.90;;;;;;4902206;29;20513;-67
2022/01/22 09:32:16;;;;;;;2.60;0.57;;;7.30;99.90;;;;;;4919195;29;20028;-67
2022/01/22 09:35:04;;;;;;;0.50;0.47;;;7.30;99.90;;;;;;4919249;29;20458;-66
2022/01/22 09:38:09;;;;;;;;;;;7.20;99.90;;;;;;4861337;29;20603;-67
2022/01/22 09:40:49;;;;;;;3.45;1.00;;;7.30;99.90;;;;;;4860769;29;20339;-67
2022/01/22 09:43:35;;;;;;;2.97;1.00;;;7.30;99.90;;;;;;4863588;29;20438;-67
2022/01/22 09:46:36;;;;;;;4.88;0.80;;;7.40;99.90;;;;;;4895866;29;20407;-67
2022/01/22 09:49:36;;;;;;;6.78;1.00;;;7.50;99.90;;;;;;4897011;29;20135;-67
2022/01/22 09:52:22;;;;;;;3.03;1.35;;;7.50;99.90;;;;;;4904725;29;20063;-67
2022/01/22 09:55:08;;;;;;;1.48;0.82;;;7.60;99.90;;;;;;4919289;29;20043;-67
2022/01/22 09:58:10;;;;;;;0.82;0.30;;;7.60;99.90;;;;;;4915074;29;20036;-67
2022/01/22 10:01:34;;;;;;;4.93;1.05;;;7.60;99.90;;;;;;4918607;29;20083;-68
2022/01/22 10:04:38;;;;;;;2.40;0.60;;;7.60;99.90;;;;;;4917815;29;20119;-67
2022/01/22 10:07:33;;;;;;;0.47;0.32;;;7.70;99.90;;;;;;4918505;29;20068;-67
2022/01/22 10:10:38;;;;;;;6.25;0.55;;;7.70;99.90;;;;;;4918522;29;20393;-67
2022/01/22 10:13:41;;;;;;;1.52;0.60;;;7.70;99.90;;;;;;4918353;29;20521;-67
2022/01/22 10:16:23;;;;;;;5.88;0.73;;;7.60;99.90;;;;;;4918358;29;20039;-67
2022/01/22 10:19:18;;;;;;;5.22;0.57;;;7.70;99.90;;;;;;4918271;29;20060;-67
2022/01/22 10:21:46;;;;;;;7.57;2.83;;;7.70;99.90;;;;;;4926134;29;20078;-67
2022/01/22 10:24:35;;;;;;;1.23;0.68;;;7.60;99.90;;;;;;4937016;29;20497;-67
2022/01/22 10:27:33;;;;;;;2.90;1.00;;;7.50;99.90;;;;;;4936938;29;20031;-65
2022/01/22 10:30:04;;;;;;;2.95;1.35;;;7.60;99.90;;;;;;4937324;29;20036;-67
2022/01/22 10:35:32;;;;;;;2.70;0.50;;;7.80;99.90;;;;;;4901189;29;20048;-64
2022/01/22 10:38:48;;;;;;;1.20;0.43;;;7.90;99.90;;;;;;4823292;29;20039;-66
2022/01/22 10:41:16;;;;;;;0.63;0.52;;;7.90;99.90;;;;;;4925072;29;20044;-66
2022/01/22 10:44:01;;;;;;;5.47;1.15;;;8.00;99.90;;;;;;4936659;29;20036;-66
2022/01/22 10:46:42;;;;;;;2.25;0.50;;;8.10;99.90;;;;;;4936711;29;20032;-66
2022/01/22 10:49:16;;;;;;;6.00;2.35;;;7.90;99.90;;;;;;4936696;29;20044;-67
2022/01/22 10:51:53;;;;;;;3.80;0.80;;;8.00;99.90;;;;;;4936672;29;20099;-67
2022/01/22 10:54:27;;;;;;;4.85;0.90;;;8.20;99.90;;;;;;4936536;29;20035;-67
2022/01/22 10:57:08;;;;;;;3.40;0.90;;;8.20;99.90;;;;;;4919569;29;20032;-66
2022/01/22 10:59:34;;;;;;;5.20;0.77;;;8.00;99.90;;;;;;4936541;29;20042;-67
2022/01/22 11:02:00;;;;;;;4.22;0.50;;;7.80;99.90;;;;;;4936459;29;20032;-67
2022/01/22 11:04:40;;;;;;;2.10;0.52;;;7.90;99.90;;;;;;4936429;29;20039;-67
2022/01/22 11:07:17;;;;;;;4.70;0.68;;;8.00;99.90;;;;;;4936267;29;20027;-67
2022/01/22 11:09:44;;;;;;;1.60;0.68;;;7.90;99.90;;;;;;4936327;29;20047;-67
2022/01/22 11:12:11;;;;;;;1.33;0.70;;;8.00;99.90;;;;;;4936308;29;20034;-67
2022/01/22 11:14:38;;;;;;;1.98;1.27;;;8.10;99.90;;;;;;4935532;29;20035;-67
2022/01/22 11:17:06;;;;;;;4.45;1.02;;;8.00;99.90;;;;;;4936174;29;20036;-67
2022/01/22 11:19:34;;;;;;;3.40;1.23;;;7.90;99.90;;;;;;4919355;29;20035;-66
2022/01/22 11:22:03;;;;;;;5.03;0.90;;;7.90;99.90;;;;;;4936298;29;20048;-66
2022/01/22 11:24:31;;;;;;;3.55;1.02;;;7.90;99.90;;;;;;4936121;29;20103;-66
2022/01/22 11:27:03;;;;;;;4.38;1.67;;;7.90;99.90;;;;;;4936384;29;20031;-66
2022/01/22 11:29:35;;;;;;;3.78;0.80;;;8.00;99.90;;;;;;4936801;29;20482;-66
2022/01/22 11:32:05;;;;;;;5.30;0.85;;;8.10;99.90;;;;;;4935634;29;20039;-67
2022/01/22 11:34:35;;;;;;;3.20;0.75;;;8.10;99.90;;;;;;4935894;29;20039;-67
2022/01/22 11:37:04;;;;;;;1.35;0.45;;;8.10;99.90;;;;;;4936027;29;20044;-66
2022/01/22 11:39:31;;;;;;;1.40;0.50;;;8.20;99.90;;;;;;4936070;29;20497;-67
2022/01/22 11:41:59;;;;;;;1.60;0.60;;;8.30;99.90;;;;;;4935980;29;20036;-67
2022/01/22 11:45:01;;;;;;;3.22;0.90;;;8.00;99.90;;;;;;4935934;29;20031;-67
2022/01/22 11:47:27;;;;;;;2.33;1.13;;;7.80;99.90;;;;;;4935955;29;20087;-66
2022/01/22 11:50:11;;;;;;;0.63;0.63;;;7.90;99.90;;;;;;4935978;29;20042;-67
2022/01/22 11:52:41;;;;;;;2.90;0.60;;;7.80;99.90;;;;;;4935977;29;20068;-67
2022/01/22 11:55:15;;;;;;;2.47;0.80;;;7.90;99.90;;;;;;4935844;29;20028;-67
2022/01/22 11:57:44;;;;;;;6.75;1.90;;;7.90;99.90;;;;;;4935954;29;20497;-67
2022/01/22 12:00:28;;;;;;;0.90;0.60;;;8.10;99.90;;;;;;4935360;29;20044;-67
2022/01/22 12:03:03;;;;;;;1.08;0.40;;;8.10;99.90;;;;;;4916950;29;20090;-67
2022/01/22 12:05:59;;;;;;;0.50;0.50;;;8.10;99.90;;;;;;4924937;29;20043;-68
2022/01/22 12:09:11;;;;;;;2.72;1.10;;;8.00;99.90;;;;;;4884574;29;20425;-66
2022/01/22 12:14:48;;;;;;;1.90;0.63;;;8.10;99.90;;;;;;4916703;29;20498;-67
2022/01/22 12:17:40;;;;;;;3.00;1.30;;;8.10;99.90;;;;;;4916588;29;20043;-67
2022/01/22 17:49:00;;;;;;;26.88;7.82;;;6.30;99.90;;;;;;6076667;22;3071499;-73
2022/01/22 17:51:26;;;;;;;11.88;6.30;;;6.30;99.90;;;;;;6220253;23;20012;-67
2022/01/22 17:53:52;;;;;;;11.00;5.50;;;6.20;99.90;;;;;;6245761;23;20329;-66
2022/01/22 17:56:18;;;;;;;16.40;5.18;;;6.20;99.90;;;;;;6245838;23;20004;-67
2022/01/22 17:58:45;;;;;;;9.77;5.53;;;6.30;99.90;;;;;;6195961;23;20101;-67
2022/01/22 18:01:12;;;;;;;12.57;5.18;;;6.40;99.90;;;;;;6215890;23;20012;-67
2022/01/22 18:03:49;;;;;;;5.38;3.30;;;6.40;99.90;;;;;;6215554;23;20012;-67
2022/01/22 18:06:17;;;;;;;14.07;6.35;;;6.30;99.90;;;;;;6164242;23;20013;-67
2022/01/22 18:08:43;;;;;;;7.93;4.00;;;6.30;99.90;;;;;;6215404;23;20445;-68
2022/01/22 18:11:12;;;;;;;9.80;4.65;;;6.40;99.90;;;;;;6215329;23;20020;-68
2022/01/22 18:13:41;;;;;;;8.52;4.60;;;6.40;99.90;;;;;;6215565;23;20007;-67
2022/01/22 18:16:09;;;;;;;11.07;5.50;;;6.50;99.90;;;;;;6189007;23;20329;-68
2022/01/22 18:18:38;;;;;;;12.60;4.90;;;6.50;99.90;;;;;;6188672;23;20437;-67
2022/01/22 18:21:04;;;;;;;5.30;3.45;;;6.50;99.90;;;;;;6215542;23;20017;-67
2022/01/22 18:23:31;;;;;;;27.77;4.88;;;6.60;99.90;;;;;;6188868;23;20012;-68
2022/01/22 18:25:57;;;;;;;7.60;3.70;;;6.60;99.90;;;;;;6215664;23;20012;-68
2022/01/22 18:28:25;;;;;;;7.85;3.17;;;6.60;99.90;;;;;;6189656;23;20327;-68
2022/01/22 18:30:52;;;;;;;6.57;3.03;;;6.70;99.90;;;;;;6217311;23;20012;-67
2022/01/22 18:33:19;;;;;;;7.10;3.47;;;6.70;99.90;;;;;;6217578;23;20008;-67
2022/01/22 18:35:46;;;;;;;8.68;3.53;;;6.70;99.90;;;;;;6217226;23;20008;-67
2022/01/22 18:38:13;;;;;;;20.80;7.78;;;6.70;99.90;;;;;;6217177;23;20035;-67
2022/01/22 18:40:42;;;;;;;15.43;6.07;;;6.60;99.90;;;;;;6217291;23;20051;-67
2022/01/22 18:43:09;;;;;;;6.45;2.78;;;6.60;99.90;;;;;;6217097;23;20338;-67
2022/01/22 18:45:35;;;;;;;10.70;2.67;;;6.50;99.90;;;;;;6190424;23;20350;-67
2022/01/22 18:48:04;;;;;;;5.10;2.53;;;6.50;99.90;;;;;;6216896;23;20024;-67
2022/01/22 18:50:31;;;;;;;4.28;1.40;;;6.40;99.90;;;;;;6217426;23;20004;-67
2022/01/22 18:52:58;;;;;;;5.53;1.20;;;6.00;99.90;;;;;;6217530;23;20045;-68
2022/01/22 18:55:24;;;;;;;6.63;2.88;;;5.60;99.90;;;;;;6217516;23;20008;-68
2022/01/22 18:57:51;;;;;;;8.70;4.57;;;5.30;99.90;;;;;;6190434;23;20307;-68
2022/01/22 19:00:22;;;;;;;6.53;2.95;;;5.20;99.90;;;;;;6216933;23;20009;-68
2022/01/22 19:02:48;;;;;;;4.60;2.35;;;5.20;99.90;;;;;;6217043;23;20422;-68
2022/01/22 19:05:14;;;;;;;11.13;2.90;;;5.20;99.90;;;;;;6217408;23;20005;-68
2022/01/22 19:07:41;;;;;;;9.40;3.55;;;5.20;99.90;;;;;;6216931;23;20062;-68
2022/01/22 19:10:14;;;;;;;17.10;6.18;;;5.20;99.90;;;;;;6217086;23;20315;-68
2022/01/22 19:12:41;;;;;;;12.90;6.18;;;5.20;99.90;;;;;;6216957;23;20016;-68
2022/01/22 19:15:09;;;;;;;11.23;5.70;;;5.30;99.90;;;;;;6190261;23;20004;-68
2022/01/22 19:17:36;;;;;;;12.18;4.90;;;5.30;99.90;;;;;;6216844;23;20070;-68
2022/01/22 19:20:05;;;;;;;11.40;5.30;;;5.30;99.90;;;;;;6216945;23;20004;-68
2022/01/22 19:22:45;;;;;;;10.20;3.97;;;5.30;99.90;;;;;;6216748;23;20020;-68
2022/01/22 19:28:00;;;;;;;37.78;14.23;;;5.30;99.90;;;;;;6216740;23;20477;-68
2022/01/22 19:30:32;;;;;;;17.52;6.47;;;5.40;99.90;;;;;;6190344;23;20004;-68
2022/01/22 19:32:59;;;;;;;15.15;6.28;;;5.20;99.90;;;;;;6217228;23;20015;-68
2022/01/22 19:35:26;;;;;;;16.90;4.75;;;5.20;99.90;;;;;;6216665;23;20005;-69
2022/01/22 19:37:52;;;;;;;11.90;5.80;;;5.20;99.90;;;;;;6216462;23;20013;-68
2022/01/22 19:40:19;;;;;;;14.32;5.95;;;5.10;99.90;;;;;;6216686;23;20007;-68
2022/01/22 19:42:58;;;;;;;19.45;6.90;;;5.10;99.90;;;;;;6216553;23;20074;-68
2022/01/22 19:45:25;;;;;;;16.92;6.47;;;5.10;99.90;;;;;;6216716;23;20007;-68
2022/01/22 19:47:51;;;;;;;11.63;6.07;;;5.10;99.90;;;;;;6189992;23;20013;-68
2022/01/22 19:50:18;;;;;;;17.95;7.38;;;5.00;99.90;;;;;;6216924;23;20369;-68
2022/01/22 19:52:45;;;;;;;17.92;7.07;;;5.00;99.90;;;;;;6217376;23;20322;-68
2022/01/22 19:55:13;;;;;;;14.73;6.75;;;4.90;99.90;;;;;;6216601;23;20004;-68
2022/01/22 19:57:39;;;;;;;10.23;5.55;;;4.90;99.90;;;;;;6216558;23;19997;-68
2022/01/22 20:00:08;;;;;;;13.73;6.57;;;4.90;99.90;;;;;;6215964;23;20012;-67
2022/01/22 20:02:37;;;;;;;14.20;6.72;;;4.90;99.90;;;;;;6216247;23;20390;-67
2022/01/22 20:05:06;;;;;;;12.30;5.18;;;4.80;99.90;;;;;;6216596;23;20015;-67
2022/01/22 20:07:39;;;;;;;9.02;4.38;;;4.80;99.90;;;;;;6215769;23;20008;-67
2022/01/22 20:10:18;;;;;;;9.18;5.38;;;4.90;99.90;;;;;;6216615;23;20009;-67
2022/01/22 20:12:44;;;;;;;32.13;10.27;;;4.80;99.90;;;;;;6216921;23;20043;-67
2022/01/22 20:15:11;;;;;;;22.95;5.70;;;4.90;99.90;;;;;;6216322;23;20059;-67
2022/01/22 20:17:38;;;;;;;11.02;5.28;;;4.90;99.90;;;;;;6216626;23;20374;-67
2022/01/22 20:20:06;;;;;;;18.75;6.53;;;5.00;99.90;;;;;;6216527;23;20067;-68
2022/01/22 20:22:33;;;;;;;58.25;16.55;;;4.90;99.90;;;;;;6216146;23;20012;-68
2022/01/22 20:24:59;;;;;;;26.50;10.35;;;5.00;99.90;;;;;;6216182;23;20004;-68
2022/01/22 20:27:28;;;;;;;13.07;5.28;;;5.00;99.90;;;;;;6189940;23;20019;-69
2022/01/22 20:30:00;;;;;;;13.10;4.63;;;5.00;99.90;;;;;;6216471;23;20008;-72
2022/01/22 20:32:29;;;;;;;8.88;3.95;;;5.10;99.90;;;;;;6215956;23;20001;-71
2022/01/22 20:34:59;;;;;;;10.13;4.70;;;5.00;99.90;;;;;;6215974;23;20012;-71
2022/01/22 20:37:27;;;;;;;8.75;4.38;;;5.00;99.90;;;;;;6216486;23;20004;-70
2022/01/22 20:39:55;;;;;;;12.18;4.43;;;5.00;99.90;;;;;;6215846;23;20024;-70
2022/01/22 20:42:23;;;;;;;10.48;4.07;;;5.00;99.90;;;;;;6215729;23;20374;-70